createdAt,value
2018-06-03T00:01:11.832Z,95.50
2018-06-03T00:03:39.294Z,95.40
2018-06-03T00:06:06.827Z,95.50
2018-06-03T00:08:35.098Z,95.50
2018-06-03T00:11:02.579Z,95.40
2018-06-03T00:13:30.055Z,95.60
2018-06-03T00:15:57.519Z,95.50
2018-06-03T00:18:24.995Z,95.40
2018-06-03T00:21:04.352Z,95.40
2018-06-03T00:23:31.912Z,95.20
2018-06-03T00:25:59.458Z,95.40
2018-06-03T00:28:27.721Z,95.30
2018-06-03T00:30:55.186Z,95.30
2018-06-03T00:33:22.661Z,95.40
2018-06-03T00:36:02.099Z,95.50
2018-06-03T00:38:29.595Z,95.60
2018-06-03T00:40:57.070Z,95.60
2018-06-03T00:43:24.569Z,95.70
2018-06-03T00:45:52.141Z,95.70
2018-06-03T00:48:20.381Z,96.00
2018-06-03T00:50:47.850Z,96.00
2018-06-03T00:53:15.420Z,96.00
2018-06-03T00:55:42.886Z,96.20
2018-06-03T00:58:11.167Z,96.20
2018-06-03T01:00:39.415Z,96.30
2018-06-03T01:03:06.889Z,96.20
2018-06-03T01:05:34.448Z,96.30
2018-06-03T01:08:01.937Z,96.00
2018-06-03T01:10:29.473Z,96.30
2018-06-03T01:12:57.723Z,96.40
2018-06-03T01:15:25.203Z,96.30
2018-06-03T01:17:53.455Z,96.50
2018-06-03T01:20:20.936Z,96.40
2018-06-03T01:22:49.177Z,96.50
2018-06-03T01:25:16.724Z,96.50
2018-06-03T01:27:44.199Z,96.40
2018-06-03T01:30:11.767Z,96.50
2018-06-03T01:32:39.267Z,96.60
2018-06-03T01:35:06.835Z,96.50
2018-06-03T01:37:34.313Z,96.40
2018-06-03T01:40:01.785Z,96.40
2018-06-03T01:42:29.264Z,96.40
2018-06-03T01:44:56.813Z,96.40
2018-06-03T01:47:24.321Z,96.50
2018-06-03T01:49:51.791Z,96.50
2018-06-03T01:52:19.274Z,96.60
2018-06-03T01:54:46.735Z,96.70
2018-06-03T01:57:14.980Z,96.80
2018-06-03T01:59:42.527Z,97.10
2018-06-03T02:02:10.007Z,96.80
2018-06-03T02:04:37.488Z,96.70
2018-06-03T02:07:04.962Z,96.70
2018-06-03T02:09:33.219Z,96.70
2018-06-03T02:12:00.699Z,96.60
2018-06-03T02:14:28.187Z,96.70
2018-06-03T02:16:55.660Z,96.60
2018-06-03T02:19:23.147Z,96.70
2018-06-03T02:21:50.628Z,96.70
2018-06-03T02:24:18.867Z,96.80
2018-06-03T02:26:46.343Z,96.80
2018-06-03T02:29:13.898Z,96.70
2018-06-03T02:31:41.455Z,96.70
2018-06-03T02:34:09.018Z,96.70
2018-06-03T02:36:36.496Z,96.60
2018-06-03T02:39:04.737Z,96.70
2018-06-03T02:41:32.207Z,96.70
2018-06-03T02:43:59.680Z,96.70
2018-06-03T02:46:27.987Z,96.80
2018-06-03T02:48:55.505Z,96.70
2018-06-03T02:51:23.066Z,96.80
2018-06-03T02:53:51.316Z,96.90
2018-06-03T02:56:18.799Z,96.90
2018-06-03T02:58:47.063Z,96.90
2018-06-03T03:01:14.539Z,96.90
2018-06-03T03:03:42.772Z,97.00
2018-06-03T03:06:10.355Z,96.90
2018-06-03T03:08:37.867Z,97.00
2018-06-03T03:11:05.336Z,96.70
2018-06-03T03:13:32.827Z,96.90
2018-06-03T03:16:00.385Z,97.10
2018-06-03T03:18:27.890Z,97.00
2018-06-03T03:20:55.450Z,97.20
2018-06-03T03:23:22.980Z,97.20
2018-06-03T03:25:51.235Z,97.30
2018-06-03T03:28:18.720Z,97.20
2018-06-03T03:30:46.203Z,97.30
2018-06-03T03:33:13.697Z,97.30
2018-06-03T03:35:41.167Z,97.40
2018-06-03T03:38:08.647Z,97.40
2018-06-03T03:40:36.127Z,97.50
2018-06-03T03:43:03.657Z,97.90
2018-06-03T03:45:31.904Z,97.70
2018-06-03T03:47:59.394Z,97.60
2018-06-03T03:50:26.875Z,97.70
2018-06-03T03:52:54.351Z,97.80
2018-06-03T03:55:21.833Z,97.80
2018-06-03T03:57:50.117Z,97.70
2018-06-03T04:00:17.603Z,97.70
2018-06-03T04:02:45.076Z,97.90
2018-06-03T04:05:12.584Z,98.00
2018-06-03T04:07:40.065Z,98.00
2018-06-03T04:10:08.302Z,98.00
2018-06-03T04:12:37.282Z,98.20
2018-06-03T04:15:04.776Z,98.20
2018-06-03T04:17:33.087Z,98.20
2018-06-03T04:20:00.561Z,98.10
2018-06-03T04:22:28.035Z,98.10
2018-06-03T04:24:55.612Z,98.20
2018-06-03T04:27:23.083Z,98.20
2018-06-03T04:29:51.395Z,98.10
2018-06-03T04:32:18.903Z,98.10
2018-06-03T04:34:46.372Z,98.30
2018-06-03T04:37:14.611Z,98.50
2018-06-03T04:39:42.195Z,98.50
2018-06-03T04:42:09.665Z,98.60
2018-06-03T04:44:37.903Z,98.80
2018-06-03T04:47:05.390Z,98.70
2018-06-03T04:49:32.870Z,98.90
2018-06-03T04:52:00.402Z,98.90
2018-06-03T04:54:27.882Z,98.90
2018-06-03T04:56:55.351Z,99.20
2018-06-03T04:59:22.835Z,98.90
2018-06-03T05:01:50.303Z,98.90
2018-06-03T05:04:17.795Z,98.90
2018-06-03T05:06:45.342Z,99.00
2018-06-03T05:09:12.912Z,99.10
2018-06-03T05:11:41.155Z,99.10
2018-06-03T05:14:08.663Z,99.00
2018-06-03T05:16:36.149Z,99.00
2018-06-03T05:19:03.757Z,99.00
2018-06-03T05:21:31.994Z,99.30
2018-06-03T05:23:59.465Z,98.90
2018-06-03T05:26:26.940Z,99.00
2018-06-03T05:28:54.502Z,99.00
2018-06-03T05:31:22.061Z,99.00
2018-06-03T05:33:49.627Z,99.00
2018-06-03T05:36:17.912Z,99.30
2018-06-03T05:38:46.180Z,99.70
2018-06-03T05:41:14.447Z,99.30
2018-06-03T05:43:42.008Z,99.20
2018-06-03T05:46:09.555Z,99.30
2018-06-03T05:48:37.027Z,99.60
2018-06-03T05:51:05.275Z,99.50
2018-06-03T05:53:32.756Z,99.40
2018-06-03T05:56:00.229Z,99.60
2018-06-03T05:58:28.486Z,99.50
2018-06-03T06:00:56.727Z,99.70
2018-06-03T06:03:24.195Z,99.60
2018-06-03T06:05:51.683Z,99.60
2018-06-03T06:08:19.920Z,99.60
2018-06-03T06:10:47.496Z,99.60
2018-06-03T06:13:15.749Z,99.60
2018-06-03T06:15:43.231Z,99.60
2018-06-03T06:18:10.711Z,99.70
2018-06-03T06:20:38.960Z,99.60
2018-06-03T06:23:06.435Z,99.60
2018-06-03T06:25:34.685Z,99.70
2018-06-03T06:28:02.254Z,99.60
2018-06-03T06:30:29.819Z,99.80
2018-06-03T06:32:57.364Z,99.80
2018-06-03T06:35:24.851Z,99.80
2018-06-03T06:37:53.098Z,99.60
2018-06-03T06:40:20.581Z,99.60
2018-06-03T06:42:48.816Z,99.70
2018-06-03T06:45:16.295Z,99.60
2018-06-03T06:47:43.852Z,99.70
2018-06-03T06:50:11.407Z,99.80
2018-06-03T06:52:38.963Z,99.80
2018-06-03T06:55:06.443Z,99.80
2018-06-03T06:57:34.689Z,99.60
2018-06-03T07:00:02.178Z,99.50
2018-06-03T07:02:30.435Z,99.60
2018-06-03T07:04:57.995Z,99.50
2018-06-03T07:07:25.501Z,99.50
2018-06-03T07:09:52.990Z,99.50
2018-06-03T07:12:20.565Z,99.50
2018-06-03T07:14:48.027Z,99.50
2018-06-03T07:17:15.607Z,99.50
2018-06-03T07:19:43.848Z,99.50
2018-06-03T07:22:11.417Z,99.50
2018-06-03T07:24:38.916Z,99.50
2018-06-03T07:27:06.430Z,99.90
2018-06-03T07:29:33.992Z,99.90
2018-06-03T07:32:01.567Z,99.80
2018-06-03T07:34:29.034Z,99.70
2018-06-03T07:36:57.283Z,99.80
2018-06-03T07:39:24.752Z,99.80
2018-06-03T07:41:52.227Z,99.90
2018-06-03T07:44:20.584Z,99.90
2018-06-03T07:46:48.070Z,99.90
2018-06-03T07:49:15.552Z,99.90
2018-06-03T07:51:43.036Z,99.90
2018-06-03T07:54:10.516Z,99.90
2018-06-03T07:56:38.016Z,99.90
2018-06-03T07:59:05.527Z,99.90
2018-06-03T08:01:33.016Z,99.90
2018-06-03T08:04:00.536Z,99.90
2018-06-03T08:06:28.095Z,99.90
2018-06-03T08:08:55.577Z,99.90
2018-06-03T08:11:23.820Z,99.90
2018-06-03T08:13:51.303Z,99.90
2018-06-03T08:16:19.560Z,99.90
2018-06-03T08:18:47.063Z,99.90
2018-06-03T08:21:14.575Z,99.90
2018-06-03T08:23:42.084Z,99.90
2018-06-03T08:26:09.568Z,99.90
2018-06-03T08:28:37.035Z,99.90
2018-06-03T08:31:05.318Z,99.90
2018-06-03T08:33:32.872Z,99.90
2018-06-03T08:36:00.448Z,99.90
2018-06-03T08:38:28.687Z,99.90
2018-06-03T08:40:56.271Z,99.90
2018-06-03T08:43:23.824Z,99.90
2018-06-03T08:45:52.835Z,99.90
2018-06-03T08:48:21.059Z,99.90
2018-06-03T08:50:48.601Z,99.90
2018-06-03T08:53:16.099Z,99.90
2018-06-03T08:55:43.623Z,99.90
2018-06-03T08:58:11.121Z,99.90
2018-06-03T09:00:38.728Z,99.90
2018-06-03T09:03:06.292Z,99.90
2018-06-03T09:05:33.768Z,99.90
2018-06-03T09:08:01.253Z,99.90
2018-06-03T09:10:28.763Z,99.90
2018-06-03T09:12:56.236Z,99.90
2018-06-03T09:15:23.710Z,99.70
2018-06-03T09:17:51.196Z,99.80
2018-06-03T09:20:18.683Z,99.50
2018-06-03T09:22:46.164Z,99.70
2018-06-03T09:25:13.643Z,99.60
2018-06-03T09:27:41.220Z,99.70
2018-06-03T09:30:08.683Z,99.80
2018-06-03T09:32:36.159Z,99.90
2018-06-03T09:35:03.688Z,99.90
2018-06-03T09:37:31.242Z,99.80
2018-06-03T09:39:58.719Z,99.80
2018-06-03T09:42:27.076Z,99.90
2018-06-03T09:44:58.587Z,99.90
2018-06-03T09:47:26.092Z,99.90
2018-06-03T09:49:53.658Z,99.90
2018-06-03T09:52:21.119Z,99.90
2018-06-03T09:54:49.383Z,99.50
2018-06-03T09:57:16.913Z,99.50
2018-06-03T09:59:44.391Z,99.60
2018-06-03T10:02:11.963Z,99.70
2018-06-03T10:04:39.435Z,99.10
2018-06-03T10:07:07.677Z,99.20
2018-06-03T10:09:35.295Z,98.80
2018-06-03T10:12:02.765Z,98.60
2018-06-03T10:14:30.257Z,98.20
2018-06-03T10:16:57.791Z,97.80
2018-06-03T10:19:25.276Z,97.70
2018-06-03T10:21:54.273Z,98.00
2018-06-03T10:24:21.747Z,98.00
2018-06-03T10:26:49.997Z,97.70
2018-06-03T10:29:18.381Z,97.70
2018-06-03T10:31:45.943Z,97.70
2018-06-03T10:34:13.492Z,97.70
2018-06-03T10:36:40.998Z,98.10
2018-06-03T10:39:08.508Z,97.80
2018-06-03T10:41:36.062Z,97.70
2018-06-03T10:44:03.624Z,98.00
2018-06-03T10:46:31.127Z,97.90
2018-06-03T10:48:58.616Z,97.80
2018-06-03T10:51:26.099Z,97.70
2018-06-03T10:53:53.580Z,97.50
2018-06-03T10:56:21.826Z,97.60
2018-06-03T10:58:51.032Z,97.90
2018-06-03T11:01:18.601Z,97.10
2018-06-03T11:03:46.861Z,97.10
2018-06-03T11:06:15.855Z,96.70
2018-06-03T11:08:43.412Z,96.70
2018-06-03T11:11:10.895Z,96.70
2018-06-03T11:13:39.144Z,96.80
2018-06-03T11:16:06.625Z,96.80
2018-06-03T11:18:34.926Z,96.80
2018-06-03T11:21:02.420Z,96.80
2018-06-03T11:23:29.936Z,96.40
2018-06-03T11:25:57.448Z,96.60
2018-06-03T11:28:24.921Z,96.40
2018-06-03T11:30:53.187Z,96.40
2018-06-03T11:33:20.672Z,96.30
2018-06-03T11:35:48.144Z,96.20
2018-06-03T11:38:15.624Z,95.90
2018-06-03T11:40:43.116Z,95.90
2018-06-03T11:43:10.668Z,95.70
2018-06-03T11:45:38.144Z,95.80
2018-06-03T11:48:06.381Z,96.10
2018-06-03T11:50:33.852Z,96.00
2018-06-03T11:53:01.420Z,96.20
2018-06-03T11:55:29.679Z,95.60
2018-06-03T12:01:22.070Z,94.90
2018-06-03T12:03:50.103Z,94.50
2018-06-03T12:06:18.108Z,93.30
2018-06-03T12:08:46.276Z,93.50
2018-06-03T12:11:14.341Z,93.80
2018-06-03T12:13:42.462Z,93.50
2018-06-03T12:16:10.455Z,92.60
2018-06-03T12:18:38.654Z,92.80
2018-06-03T12:21:06.704Z,92.70
2018-06-03T12:23:34.828Z,92.90
2018-06-03T12:26:02.945Z,92.90
2018-06-03T12:28:31.197Z,93.00
2018-06-03T12:30:59.188Z,93.30
2018-06-03T12:33:27.259Z,92.70
2018-06-03T12:35:55.782Z,92.80
2018-06-03T12:38:23.787Z,92.40
2018-06-03T12:40:51.796Z,92.60
2018-06-03T12:43:19.785Z,92.90
2018-06-03T12:45:47.819Z,91.80
2018-06-03T12:48:15.829Z,92.10
2018-06-03T12:50:43.884Z,92.30
2018-06-03T12:53:11.937Z,91.70
2018-06-03T12:55:39.923Z,92.10
2018-06-03T12:58:07.935Z,92.10
2018-06-03T13:00:35.943Z,92.00
2018-06-03T13:03:03.965Z,92.00
2018-06-03T13:05:31.982Z,92.20
2018-06-03T13:07:59.976Z,91.80
2018-06-03T13:10:28.047Z,92.90
2018-06-03T13:12:56.088Z,90.90
2018-06-03T13:15:24.188Z,91.20
2018-06-03T13:17:52.264Z,90.50
2018-06-03T13:20:20.306Z,90.30
2018-06-03T13:22:48.383Z,89.10
2018-06-03T13:25:16.424Z,88.10
2018-06-03T13:27:44.426Z,86.50
2018-06-03T13:30:12.432Z,85.00
2018-06-03T13:32:40.457Z,84.40
2018-06-03T13:35:08.596Z,84.90
2018-06-03T13:37:36.633Z,84.70
2018-06-03T13:40:04.896Z,84.10
2018-06-03T13:42:32.963Z,83.80
2018-06-03T13:45:01.017Z,84.10
2018-06-03T13:47:29.058Z,83.20
2018-06-03T13:49:57.295Z,82.90
2018-06-03T13:52:26.021Z,81.90
2018-06-03T13:54:54.144Z,81.20
2018-06-03T13:57:22.169Z,82.50
2018-06-03T13:59:50.336Z,81.80
2018-06-03T14:02:18.605Z,80.90
2018-06-03T14:04:46.628Z,81.00
2018-06-03T14:07:14.795Z,82.00
2018-06-03T14:09:42.855Z,78.40
2018-06-03T14:12:10.877Z,79.40
2018-06-03T14:14:39.613Z,81.10
2018-06-03T14:17:07.607Z,80.00
2018-06-03T14:19:35.660Z,79.30
2018-06-03T14:22:03.692Z,81.10
2018-06-03T14:24:31.716Z,80.30
2018-06-03T14:26:59.735Z,77.80
2018-06-03T14:29:27.851Z,78.10
2018-06-03T14:31:55.914Z,76.00
2018-06-03T14:34:23.923Z,76.10
2018-06-03T14:36:52.090Z,77.00
2018-06-03T14:39:20.123Z,76.00
2018-06-03T14:41:48.188Z,74.90
2018-06-03T14:44:16.207Z,76.00
2018-06-03T14:46:44.269Z,75.20
2018-06-03T14:49:12.348Z,76.40
2018-06-03T14:51:40.408Z,75.60
2018-06-03T14:54:08.460Z,76.20
2018-06-03T14:56:36.481Z,78.10
2018-06-03T14:59:04.457Z,77.10
2018-06-03T15:01:32.542Z,77.50
2018-06-03T15:04:00.540Z,77.10
2018-06-03T15:06:28.759Z,75.70
2018-06-03T15:08:56.755Z,76.60
2018-06-03T15:11:24.824Z,77.60
2018-06-03T15:13:52.856Z,76.70
2018-06-03T15:16:20.868Z,77.20
2018-06-03T15:18:48.900Z,75.50
2018-06-03T15:21:16.952Z,77.40
2018-06-03T15:23:44.992Z,76.30
2018-06-03T15:26:13.047Z,75.40
2018-06-03T15:28:41.023Z,74.90
2018-06-03T15:31:09.060Z,76.00
2018-06-03T15:33:37.061Z,74.80
2018-06-03T15:36:05.060Z,73.80
2018-06-03T15:38:33.096Z,71.90
2018-06-03T15:41:01.087Z,72.60
2018-06-03T15:43:29.153Z,70.50
2018-06-03T15:45:57.155Z,71.00
2018-06-03T15:48:25.215Z,73.70
2018-06-03T15:53:21.094Z,72.20
2018-06-03T15:55:49.110Z,71.20
2018-06-03T15:58:17.280Z,71.30
2018-06-03T16:00:45.283Z,72.60
2018-06-03T16:03:13.342Z,73.20
2018-06-03T16:08:09.264Z,72.40
2018-06-03T16:10:37.288Z,71.60
2018-06-03T16:13:05.340Z,70.10
2018-06-03T16:15:33.410Z,70.80
2018-06-03T16:18:01.439Z,70.10
2018-06-03T16:20:29.493Z,71.20
2018-06-03T16:22:57.535Z,70.40
2018-06-03T16:25:25.603Z,70.70
2018-06-03T16:27:53.641Z,71.90
2018-06-03T16:30:21.665Z,72.10
2018-06-03T16:32:49.764Z,73.10
2018-06-03T16:35:17.828Z,73.20
2018-06-03T16:40:13.767Z,75.30
2018-06-03T16:42:41.769Z,75.20
2018-06-03T16:45:09.801Z,75.70
2018-06-03T16:47:37.822Z,76.20
2018-06-03T16:50:07.210Z,76.30
2018-06-03T16:52:35.312Z,76.10
2018-06-03T16:55:03.315Z,75.30
2018-06-03T16:57:31.312Z,74.80
2018-06-03T16:59:59.372Z,74.80
2018-06-03T17:02:27.359Z,73.50
2018-06-03T17:04:55.401Z,73.80
2018-06-03T17:07:23.407Z,73.90
2018-06-03T17:09:51.452Z,73.60
2018-06-03T17:12:19.492Z,74.10
2018-06-03T17:14:47.619Z,73.30
2018-06-03T17:17:15.748Z,72.50
2018-06-03T17:19:43.751Z,73.10
2018-06-03T17:22:11.898Z,73.90
2018-06-03T17:27:08.124Z,74.50
2018-06-03T17:29:36.192Z,74.40
2018-06-03T17:32:04.353Z,74.00
2018-06-03T17:34:32.358Z,74.10
2018-06-03T17:39:28.281Z,74.60
2018-06-03T17:44:24.210Z,75.00
2018-06-03T17:46:52.375Z,75.80
2018-06-03T17:49:20.446Z,76.00
2018-06-03T17:51:48.508Z,76.50
2018-06-03T17:54:16.628Z,77.00
2018-06-03T17:56:44.683Z,77.20
2018-06-03T17:59:12.744Z,77.60
2018-06-03T18:01:40.737Z,77.90
2018-06-03T18:04:08.772Z,79.00
2018-06-03T18:06:36.793Z,77.40
2018-06-03T18:09:07.450Z,77.90
2018-06-03T18:11:36.318Z,78.10
2018-06-03T18:14:04.838Z,77.60
2018-06-03T18:16:33.138Z,77.40
2018-06-03T18:19:01.771Z,77.80
2018-06-03T18:21:29.794Z,78.60
2018-06-03T18:23:58.098Z,78.50
2018-06-03T18:26:26.223Z,79.10
2018-06-03T18:28:54.635Z,79.30
2018-06-03T18:31:22.972Z,79.60
2018-06-03T18:33:51.575Z,80.00
2018-06-03T18:36:19.992Z,80.20
2018-06-03T18:38:48.036Z,80.60
2018-06-03T18:41:16.330Z,80.90
2018-06-03T18:43:44.355Z,80.80
2018-06-03T18:46:12.360Z,81.00
2018-06-03T18:48:40.413Z,80.60
2018-06-03T18:51:08.472Z,81.10
2018-06-03T18:53:36.605Z,81.40
2018-06-03T18:56:04.622Z,81.40
2018-06-03T18:58:32.850Z,81.40
2018-06-03T19:01:00.964Z,81.50
2018-06-03T19:03:29.232Z,81.90
2018-06-03T19:05:57.292Z,81.90
2018-06-03T19:08:25.492Z,82.70
2018-06-03T19:10:53.803Z,83.00
2018-06-03T19:13:21.860Z,83.00
2018-06-03T19:15:49.933Z,83.20
2018-06-03T19:18:17.984Z,83.40
2018-06-03T19:20:45.973Z,83.60
2018-06-03T19:23:14.020Z,83.90
2018-06-03T19:25:42.083Z,84.30
2018-06-03T19:28:10.088Z,84.40
2018-06-03T19:30:38.139Z,84.70
2018-06-03T19:33:06.793Z,84.80
2018-06-03T19:35:35.370Z,85.00
2018-06-03T19:38:03.793Z,85.00
2018-06-03T19:40:31.862Z,85.20
2018-06-03T19:42:59.936Z,85.30
2018-06-03T19:45:28.187Z,85.80
2018-06-03T19:47:56.184Z,86.20
2018-06-03T19:50:24.309Z,86.20
2018-06-03T19:52:52.331Z,86.30
2018-06-03T19:55:20.325Z,86.60
2018-06-03T19:57:48.367Z,86.80
2018-06-03T20:00:16.412Z,87.10
2018-06-03T20:02:44.408Z,87.60
2018-06-03T20:05:12.553Z,88.30
2018-06-03T20:07:40.603Z,88.80
2018-06-03T20:10:08.627Z,89.10
2018-06-03T20:12:36.650Z,89.30
2018-06-03T20:15:04.659Z,89.50
2018-06-03T20:17:32.805Z,89.90
2018-06-03T20:20:00.799Z,89.70
2018-06-03T20:22:28.891Z,89.90
2018-06-03T20:24:56.946Z,90.00
2018-06-03T20:27:25.023Z,90.20
2018-06-03T20:29:53.055Z,90.40
2018-06-03T20:32:21.067Z,90.30
2018-06-03T20:34:49.106Z,90.50
2018-06-03T20:37:17.143Z,90.50
2018-06-03T20:39:45.146Z,90.70
2018-06-03T20:42:13.243Z,90.80
2018-06-03T20:44:41.346Z,90.90
2018-06-03T20:47:09.359Z,91.00
2018-06-03T20:49:38.518Z,90.90
2018-06-03T20:52:06.588Z,90.90
2018-06-03T20:54:34.591Z,91.00
2018-06-03T20:57:02.597Z,91.10
2018-06-03T20:59:30.679Z,91.30
2018-06-03T21:01:58.825Z,91.20
2018-06-03T21:04:26.891Z,91.40
2018-06-03T21:06:54.948Z,91.60
2018-06-03T21:09:22.936Z,91.60
2018-06-03T21:11:50.971Z,91.70
2018-06-03T21:14:19.043Z,91.80
2018-06-03T21:16:47.055Z,91.80
2018-06-03T21:19:15.284Z,91.90
2018-06-03T21:21:43.295Z,91.90
2018-06-03T21:24:11.520Z,92.20
2018-06-03T21:26:39.539Z,92.30
2018-06-03T21:29:07.662Z,92.80
2018-06-03T21:31:35.690Z,92.50
2018-06-03T21:34:03.751Z,92.40
2018-06-03T21:36:31.820Z,92.70
2018-06-03T21:38:59.901Z,92.70
2018-06-03T21:41:27.971Z,92.80
2018-06-03T21:43:56.108Z,92.90
2018-06-03T21:46:24.157Z,93.00
2018-06-03T21:48:52.370Z,92.90
2018-06-03T21:51:20.453Z,92.90
2018-06-03T21:53:48.478Z,92.90
2018-06-03T21:56:16.501Z,92.90
2018-06-03T21:58:44.561Z,93.00
2018-06-03T22:01:12.585Z,93.00
2018-06-03T22:03:40.684Z,93.10
2018-06-03T22:06:08.763Z,93.30
2018-06-03T22:08:36.870Z,93.30
2018-06-03T22:11:04.978Z,93.30
2018-06-03T22:13:33.194Z,93.50
2018-06-03T22:16:01.249Z,93.60
2018-06-03T22:18:29.256Z,93.60
2018-06-03T22:20:57.283Z,93.70
2018-06-03T22:23:25.333Z,93.70
2018-06-03T22:25:53.371Z,93.60
2018-06-03T22:28:21.419Z,93.80
2018-06-03T22:30:49.465Z,93.90
2018-06-03T22:33:17.469Z,94.00
2018-06-03T22:35:45.533Z,94.10
2018-06-03T22:38:13.613Z,94.20
2018-06-03T22:40:41.672Z,94.20
2018-06-03T22:43:09.744Z,94.20
2018-06-03T22:45:37.811Z,94.20
2018-06-03T22:48:05.884Z,94.20
2018-06-03T22:50:33.928Z,94.10
2018-06-03T22:53:01.989Z,94.10
2018-06-03T22:55:29.995Z,94.10
2018-06-03T22:57:58.067Z,94.20
2018-06-03T23:00:29.172Z,94.30
2018-06-03T23:03:02.793Z,94.40
2018-06-03T23:05:30.908Z,94.40
2018-06-03T23:07:58.994Z,94.50
2018-06-03T23:10:27.056Z,94.50
2018-06-03T23:12:55.096Z,94.90
2018-06-03T23:15:23.189Z,94.50
2018-06-03T23:17:51.257Z,94.60
2018-06-03T23:20:19.283Z,94.70
2018-06-03T23:22:47.288Z,94.80
2018-06-03T23:25:15.343Z,94.80
2018-06-03T23:27:43.386Z,94.90
2018-06-03T23:30:11.440Z,95.00
2018-06-03T23:32:39.523Z,95.00
2018-06-03T23:35:07.527Z,95.10
2018-06-03T23:37:35.624Z,95.10
2018-06-03T23:40:03.846Z,95.10
2018-06-03T23:42:31.859Z,95.20
2018-06-03T23:44:59.895Z,95.10
2018-06-03T23:47:27.899Z,95.10
2018-06-03T23:49:55.935Z,95.20
2018-06-03T23:52:23.923Z,95.30
2018-06-03T23:54:52.044Z,95.30
2018-06-03T23:57:20.016Z,95.30
2018-06-03T23:59:48.058Z,95.40
